Time;durP1;ratioP1;P1;durP2;ratioP2;P2;SDS_P1;SDS_P2;PMS_P1;PMS_P2;Temp;Humidity;BMP_temperature;BMP_pressure;BME280_temperature;BME280_humidity;BME280_pressure;Samples;Min_cycle;Max_cycle;Signal;HPM_P1;HPM_P2
2022/01/24 00:01:35;;;;;;;9.77;8.30;;;5.40;99.90;;;;;;6243047;22;19996;-81
2022/01/24 00:04:02;;;;;;;9.40;7.87;;;5.40;99.90;;;;;;6243503;22;20585;-81
2022/01/24 00:06:30;;;;;;;7.77;6.87;;;5.40;99.90;;;;;;6219088;22;20399;-81
2022/01/24 00:08:56;;;;;;;9.00;7.90;;;5.50;99.90;;;;;;6270553;22;20750;-81
2022/01/24 00:11:27;;;;;;;9.68;8.02;;;5.40;99.90;;;;;;6245605;22;20023;-81
2022/01/24 00:27:00;;;;;;;9.10;8.20;;;5.40;99.90;;;;;;6269656;22;20019;-81
2022/01/24 00:29:26;;;;;;;11.27;9.67;;;5.40;99.90;;;;;;6270559;22;20746;-81
2022/01/24 00:31:54;;;;;;;10.15;8.95;;;5.40;99.90;;;;;;6244801;22;20053;-81
2022/01/24 00:34:20;;;;;;;10.57;9.47;;;5.40;99.90;;;;;;6270148;22;20644;-81
2022/01/24 00:36:47;;;;;;;11.20;10.00;;;5.40;99.90;;;;;;6244176;22;20023;-82
2022/01/24 00:39:13;;;;;;;11.17;10.00;;;5.40;99.90;;;;;;6244200;22;20020;-81
2022/01/24 00:47:05;;;;;;;11.70;10.27;;;5.40;99.90;;;;;;6269793;22;20084;-81
2022/01/24 00:54:53;;;;;;;12.37;10.43;;;5.30;99.90;;;;;;6248999;22;20023;-81
2022/01/24 00:57:21;;;;;;;12.57;11.27;;;5.30;99.90;;;;;;6245468;22;20023;-81
2022/01/24 00:59:48;;;;;;;13.03;11.73;;;5.40;99.90;;;;;;6244308;22;20028;-81
2022/01/24 01:02:15;;;;;;;13.52;12.02;;;5.40;99.90;;;;;;6265451;22;20015;-80
2022/01/24 01:18:21;;;;;;;13.43;11.90;;;5.50;99.90;;;;;;6242963;22;20030;-81
2022/01/24 01:23:37;;;;;;;13.85;12.45;;;5.30;99.90;;;;;;6266706;22;20483;-81
2022/01/24 01:26:07;;;;;;;13.67;12.17;;;5.30;99.90;;;;;;6241851;22;20023;-81
2022/01/24 01:28:34;;;;;;;12.88;11.55;;;5.30;99.90;;;;;;6242721;22;20463;-81
2022/01/24 01:31:05;;;;;;;14.13;11.80;;;5.30;99.90;;;;;;6217421;22;20023;-81
2022/01/24 01:38:42;;;;;;;13.10;11.80;;;5.30;99.90;;;;;;6242821;22;20020;-81
2022/01/24 01:57:13;;;;;;;15.13;12.70;;;5.30;99.90;;;;;;6263489;22;20463;-81
2022/01/24 01:59:39;;;;;;;14.80;12.87;;;5.30;99.90;;;;;;6263541;22;20655;-81
2022/01/24 02:02:05;;;;;;;15.93;13.03;;;5.30;99.90;;;;;;6238533;22;20015;-81
2022/01/24 02:04:31;;;;;;;16.43;13.93;;;5.30;99.90;;;;;;6263465;22;20022;-81
2022/01/24 02:06:57;;;;;;;14.83;13.13;;;5.30;99.90;;;;;;6238358;22;20015;-81
2022/01/24 02:09:30;;;;;;;16.00;13.88;;;5.30;99.90;;;;;;6238616;22;20012;-81
2022/01/24 02:11:56;;;;;;;16.87;14.13;;;5.30;99.90;;;;;;6264118;22;20020;-81
2022/01/24 02:14:29;;;;;;;17.52;14.57;;;5.30;99.90;;;;;;6238503;22;20107;-80
2022/01/24 02:17:02;;;;;;;15.20;13.57;;;5.30;99.90;;;;;;6214296;22;20074;-81
2022/01/24 02:20:12;;;;;;;15.83;13.70;;;5.30;99.90;;;;;;6240795;22;20122;-81
2022/01/24 02:24:59;;;;;;;17.33;14.90;;;5.20;99.90;;;;;;6262602;22;20469;-80
2022/01/24 02:27:28;;;;;;;17.90;16.00;;;5.20;99.90;;;;;;6240016;22;20023;-82
2022/01/24 02:30:10;;;;;;;17.13;15.23;;;5.20;99.90;;;;;;6238873;22;20264;-81
2022/01/24 02:32:38;;;;;;;18.87;16.20;;;5.20;99.90;;;;;;6238563;22;20499;-81
2022/01/24 02:35:05;;;;;;;20.15;17.70;;;5.20;99.90;;;;;;6238258;22;20055;-81
2022/01/24 02:37:31;;;;;;;22.52;17.98;;;5.20;99.90;;;;;;6239407;22;20015;-81
2022/01/24 02:40:14;;;;;;;19.30;17.07;;;5.20;99.90;;;;;;6263199;22;20023;-81
2022/01/24 02:48:28;;;;;;;22.67;17.97;;;5.20;99.90;;;;;;6241604;22;20023;-81
2022/01/24 02:53:48;;;;;;;20.63;18.27;;;5.20;99.90;;;;;;6263040;22;20099;-81
2022/01/24 02:56:14;;;;;;;21.45;19.17;;;5.20;99.90;;;;;;6262890;22;20475;-81
2022/01/24 02:58:40;;;;;;;25.63;20.57;;;5.20;99.90;;;;;;6262564;22;20016;-81
2022/01/24 03:01:07;;;;;;;22.83;19.90;;;5.20;99.90;;;;;;6260796;22;20016;-81
2022/01/24 03:03:34;;;;;;;22.08;19.23;;;5.20;99.90;;;;;;6262207;22;20513;-81
2022/01/24 03:06:00;;;;;;;21.77;19.48;;;5.20;99.90;;;;;;6264406;22;20024;-81
2022/01/24 03:08:29;;;;;;;22.95;20.45;;;5.20;99.90;;;;;;6265467;22;20093;-81
2022/01/24 03:10:55;;;;;;;23.75;20.65;;;5.20;99.90;;;;;;6240552;22;20015;-81
2022/01/24 03:15:56;;;;;;;22.80;20.03;;;5.20;99.90;;;;;;6262865;22;20098;-81
2022/01/24 03:18:25;;;;;;;22.67;20.13;;;5.10;99.90;;;;;;6238904;22;20022;-81
2022/01/24 03:20:50;;;;;;;24.27;20.80;;;5.10;99.90;;;;;;6238204;22;20023;-81
2022/01/24 03:23:18;;;;;;;24.43;21.20;;;5.20;99.90;;;;;;6238203;22;20015;-81
2022/01/24 03:25:45;;;;;;;23.73;20.50;;;5.20;99.90;;;;;;6237071;22;20019;-81
2022/01/24 03:28:11;;;;;;;21.42;19.05;;;5.10;99.90;;;;;;6263985;22;20016;-81
2022/01/24 03:30:38;;;;;;;22.80;19.73;;;5.20;99.90;;;;;;6264659;22;20016;-81
2022/01/24 03:33:05;;;;;;;22.23;19.88;;;5.10;99.90;;;;;;6265239;22;20030;-81
2022/01/24 03:35:32;;;;;;;23.08;20.48;;;5.20;99.90;;;;;;6238352;22;20091;-81
2022/01/24 03:37:58;;;;;;;25.83;21.30;;;5.10;99.90;;;;;;6264578;22;20089;-81
2022/01/24 03:40:24;;;;;;;23.97;21.37;;;5.10;99.90;;;;;;6239498;22;20019;-81
2022/01/24 03:42:50;;;;;;;24.30;21.47;;;5.10;99.90;;;;;;6213611;22;20022;-81
2022/01/24 03:45:24;;;;;;;24.13;20.83;;;5.10;99.90;;;;;;6240270;22;20016;-81
2022/01/24 03:48:04;;;;;;;23.20;20.67;;;5.10;99.90;;;;;;6266763;22;20029;-81
2022/01/24 03:50:30;;;;;;;23.40;20.92;;;5.20;99.90;;;;;;6264920;22;20015;-81
2022/01/24 03:52:55;;;;;;;25.98;22.17;;;5.10;99.90;;;;;;6215200;22;20098;-81
2022/01/24 03:55:21;;;;;;;24.48;21.85;;;5.10;99.90;;;;;;6264064;22;20023;-81
2022/01/24 03:57:47;;;;;;;25.37;22.67;;;5.20;99.90;;;;;;6239704;22;20094;-81
2022/01/24 04:00:13;;;;;;;24.00;21.37;;;5.20;99.90;;;;;;6239295;22;20046;-81
2022/01/24 04:02:40;;;;;;;25.47;21.87;;;5.10;99.90;;;;;;6216608;22;20348;-81
2022/01/24 04:05:06;;;;;;;26.73;23.83;;;5.10;99.90;;;;;;6270402;22;20080;-81
2022/01/24 04:07:33;;;;;;;26.30;22.43;;;5.10;99.90;;;;;;6244847;22;20466;-81
2022/01/24 04:10:06;;;;;;;23.63;20.83;;;5.10;99.90;;;;;;6272193;22;20467;-81
2022/01/24 04:12:34;;;;;;;24.47;21.83;;;5.10;99.90;;;;;;6272025;22;20073;-81
2022/01/24 04:15:14;;;;;;;25.88;21.80;;;5.10;99.90;;;;;;6245809;22;20011;-81
2022/01/24 04:17:46;;;;;;;24.58;20.33;;;5.10;99.90;;;;;;6270605;22;20023;-81
2022/01/24 04:23:00;;;;;;;23.33;20.83;;;5.10;99.90;;;;;;6173955;22;20020;-81
2022/01/24 04:25:26;;;;;;;22.63;19.67;;;5.00;99.90;;;;;;6220597;22;20015;-81
2022/01/24 04:27:53;;;;;;;24.65;21.58;;;5.10;99.90;;;;;;6246308;22;20022;-81
2022/01/24 04:30:21;;;;;;;23.90;21.23;;;5.10;99.90;;;;;;6245373;22;20018;-81
2022/01/24 04:32:47;;;;;;;20.23;17.97;;;5.10;99.90;;;;;;6246563;22;20019;-81
2022/01/24 04:35:13;;;;;;;21.83;19.47;;;5.10;99.90;;;;;;6220926;22;20026;-81
2022/01/24 04:37:39;;;;;;;21.20;18.93;;;5.10;99.90;;;;;;6269807;22;20022;-81
2022/01/24 04:40:06;;;;;;;20.60;18.23;;;5.10;99.90;;;;;;6219743;22;20019;-81
2022/01/24 04:42:44;;;;;;;25.10;21.93;;;5.10;99.90;;;;;;6271774;22;20068;-82
2022/01/24 04:50:20;;;;;;;23.23;20.53;;;5.10;99.90;;;;;;6245079;22;20647;-81
2022/01/24 04:53:14;;;;;;;24.00;20.17;;;5.10;99.90;;;;;;6248160;22;20295;-81
2022/01/24 04:55:40;;;;;;;22.70;20.30;;;5.10;99.90;;;;;;6244301;22;20012;-81
2022/01/24 04:58:08;;;;;;;23.17;20.30;;;5.10;99.90;;;;;;6219137;22;20318;-81
2022/01/24 05:00:34;;;;;;;24.20;21.40;;;5.10;99.90;;;;;;6243471;22;20019;-81
2022/01/24 05:03:00;;;;;;;24.10;21.10;;;5.00;99.90;;;;;;6263936;22;20382;-81
2022/01/24 05:05:28;;;;;;;22.58;20.17;;;5.00;99.90;;;;;;6213904;22;20538;-81
2022/01/24 05:07:53;;;;;;;22.33;19.20;;;5.00;99.90;;;;;;6214834;22;20030;-81
2022/01/24 05:10:29;;;;;;;22.97;18.93;;;5.00;99.90;;;;;;6263823;22;20019;-81
2022/01/24 05:21:31;;;;;;;19.93;17.73;;;5.00;99.90;;;;;;6265136;22;20023;-81
2022/01/24 05:23:57;;;;;;;21.27;19.00;;;5.00;99.90;;;;;;6223625;22;20031;-81
2022/01/24 05:26:23;;;;;;;22.87;20.43;;;5.00;99.90;;;;;;6211971;22;20026;-81
2022/01/24 05:28:49;;;;;;;20.97;18.53;;;5.00;99.90;;;;;;6214546;22;20016;-82
2022/01/24 05:31:15;;;;;;;20.63;18.43;;;5.00;99.90;;;;;;6239353;22;20058;-82
2022/01/24 05:33:40;;;;;;;21.50;19.20;;;5.00;99.90;;;;;;6239397;22;20016;-81
2022/01/24 05:36:06;;;;;;;21.73;18.63;;;5.00;99.90;;;;;;6238948;22;20016;-82
2022/01/24 05:38:32;;;;;;;22.00;19.60;;;5.00;99.90;;;;;;6239028;22;20457;-81
2022/01/24 05:40:58;;;;;;;21.17;18.83;;;5.00;99.90;;;;;;6264219;22;20448;-81
2022/01/24 05:43:24;;;;;;;19.77;17.67;;;5.10;99.90;;;;;;6239221;22;20579;-81
2022/01/24 05:45:50;;;;;;;21.30;19.00;;;5.00;99.90;;;;;;6239078;22;20020;-81
2022/01/24 05:48:16;;;;;;;22.30;19.27;;;5.00;99.90;;;;;;6213050;22;20030;-81
2022/01/24 05:50:42;;;;;;;22.13;19.73;;;5.00;99.90;;;;;;6238623;22;20016;-81
2022/01/24 05:53:08;;;;;;;25.23;20.80;;;5.00;99.90;;;;;;6265247;22;20020;-81
2022/01/24 05:55:34;;;;;;;24.63;20.73;;;4.90;99.90;;;;;;6211406;22;20670;-82
2022/01/24 05:58:00;;;;;;;25.13;20.80;;;4.90;99.90;;;;;;6235308;22;20038;-82
2022/01/24 06:00:26;;;;;;;23.60;19.23;;;4.90;99.90;;;;;;6236195;22;20440;-81
2022/01/24 06:02:51;;;;;;;23.45;19.70;;;4.90;99.90;;;;;;6261586;22;20030;-81
2022/01/24 06:05:18;;;;;;;26.55;20.90;;;4.90;99.90;;;;;;6260910;22;20373;-81
2022/01/24 06:07:44;;;;;;;24.73;19.67;;;4.90;99.90;;;;;;6264182;22;20325;-82
2022/01/24 06:10:10;;;;;;;23.43;20.50;;;4.80;99.90;;;;;;6264296;22;20487;-81
2022/01/24 06:12:36;;;;;;;24.17;19.97;;;4.80;99.90;;;;;;6238194;22;20030;-82
2022/01/24 06:15:03;;;;;;;21.37;18.53;;;4.80;99.90;;;;;;6238414;22;20020;-82
2022/01/24 06:17:29;;;;;;;22.13;19.00;;;4.80;99.90;;;;;;6263413;22;20016;-82
2022/01/24 06:19:55;;;;;;;21.53;19.23;;;4.80;99.90;;;;;;6238625;22;20329;-81
2022/01/24 06:22:21;;;;;;;24.03;20.73;;;4.80;99.90;;;;;;6237499;22;20051;-82
2022/01/24 06:24:47;;;;;;;21.83;18.20;;;4.80;99.90;;;;;;6237846;22;20016;-81
2022/01/24 06:27:13;;;;;;;22.10;17.40;;;4.80;99.90;;;;;;6262807;22;20081;-81
2022/01/24 06:29:39;;;;;;;20.50;18.03;;;4.80;99.90;;;;;;6212160;22;20410;-82
2022/01/24 06:32:05;;;;;;;22.67;19.30;;;4.80;99.90;;;;;;6212675;22;20077;-82
2022/01/24 06:34:31;;;;;;;24.23;19.83;;;4.80;99.90;;;;;;6237642;22;20079;-82
2022/01/24 06:36:57;;;;;;;23.17;19.27;;;4.80;99.90;;;;;;6237655;22;20204;-81
2022/01/24 06:39:23;;;;;;;23.70;20.03;;;4.80;99.90;;;;;;6264086;22;20015;-81
2022/01/24 06:42:05;;;;;;;23.70;19.80;;;4.90;99.90;;;;;;6261687;22;20455;-82
2022/01/24 06:44:30;;;;;;;21.73;18.37;;;4.70;99.90;;;;;;6235456;22;20043;-82
2022/01/24 06:46:56;;;;;;;24.03;19.30;;;4.80;99.90;;;;;;6236689;22;20631;-82
2022/01/24 06:49:22;;;;;;;23.60;19.57;;;4.80;99.90;;;;;;6260547;22;20023;-81
2022/01/24 06:51:48;;;;;;;23.40;17.97;;;4.80;99.90;;;;;;6234153;22;20099;-82
2022/01/24 06:54:13;;;;;;;23.03;19.20;;;4.80;99.90;;;;;;6233490;22;20026;-82
2022/01/24 06:56:39;;;;;;;23.83;18.83;;;4.80;99.90;;;;;;6207616;22;20393;-82
2022/01/24 06:59:07;;;;;;;23.30;20.27;;;4.80;99.90;;;;;;6232595;22;20407;-82
2022/01/24 07:01:32;;;;;;;24.47;20.53;;;4.70;99.90;;;;;;6205905;22;20095;-82
2022/01/24 07:04:01;;;;;;;22.97;19.67;;;4.70;99.90;;;;;;6227287;22;20602;-83
2022/01/24 07:06:30;;;;;;;23.73;20.60;;;4.80;99.90;;;;;;6228850;22;20062;-82
2022/01/24 07:08:56;;;;;;;23.93;20.30;;;4.80;99.90;;;;;;6260045;22;20388;-83
2022/01/24 07:11:22;;;;;;;24.57;20.93;;;4.70;99.90;;;;;;6236940;22;20055;-83
2022/01/24 07:13:49;;;;;;;24.90;20.53;;;4.70;99.90;;;;;;6237201;22;20016;-82
2022/01/24 07:16:16;;;;;;;25.73;19.50;;;4.70;99.90;;;;;;6235326;22;20126;-82
2022/01/24 07:19:02;;;;;;;25.47;20.90;;;4.70;99.90;;;;;;6214981;22;20016;-82
2022/01/24 07:21:28;;;;;;;30.67;23.60;;;4.70;99.90;;;;;;6243553;22;20462;-82
2022/01/24 07:23:54;;;;;;;27.17;21.93;;;4.70;99.90;;;;;;6213607;22;20069;-82
2022/01/24 07:26:20;;;;;;;28.40;22.50;;;4.70;99.90;;;;;;6213862;22;20069;-82
2022/01/24 07:28:46;;;;;;;26.60;21.57;;;4.70;99.90;;;;;;6239577;22;20445;-82
2022/01/24 07:31:12;;;;;;;26.83;21.73;;;4.70;99.90;;;;;;6264319;22;20403;-82
2022/01/24 07:33:40;;;;;;;31.40;24.73;;;4.70;99.90;;;;;;6264028;22;20012;-82
2022/01/24 07:36:06;;;;;;;34.23;26.40;;;4.70;99.90;;;;;;6264555;22;20012;-83
2022/01/24 07:38:32;;;;;;;37.00;28.27;;;4.70;99.90;;;;;;6237504;22;20091;-82
2022/01/24 07:41:01;;;;;;;43.57;35.37;;;4.80;99.90;;;;;;6263168;22;20055;-82
2022/01/24 07:43:30;;;;;;;44.87;35.90;;;4.70;99.90;;;;;;6212975;22;20019;-82
2022/01/24 07:45:56;;;;;;;44.83;35.27;;;4.70;99.90;;;;;;6240755;22;20015;-83
2022/01/24 07:48:21;;;;;;;46.40;37.80;;;4.80;99.90;;;;;;6212748;22;20076;-82
2022/01/24 07:50:47;;;;;;;48.47;36.73;;;4.80;99.90;;;;;;6235535;22;20024;-82
2022/01/24 07:53:15;;;;;;;47.00;35.73;;;4.80;99.90;;;;;;6238731;22;20332;-83
2022/01/24 07:55:42;;;;;;;47.20;35.70;;;4.80;99.90;;;;;;6212058;22;20019;-82
2022/01/24 07:58:09;;;;;;;41.80;31.90;;;4.80;99.90;;;;;;6236840;22;20580;-83
2022/01/24 08:00:36;;;;;;;45.15;33.00;;;4.80;99.90;;;;;;6236021;22;20510;-82
2022/01/24 08:03:02;;;;;;;47.83;34.70;;;4.80;99.90;;;;;;6236500;22;20015;-82
2022/01/24 08:05:29;;;;;;;52.50;36.70;;;4.90;99.90;;;;;;6211758;22;20495;-82
2022/01/24 08:07:55;;;;;;;54.47;39.50;;;4.90;99.90;;;;;;6262380;22;20023;-82
2022/01/24 08:10:21;;;;;;;48.70;37.23;;;4.80;99.90;;;;;;6262331;22;20027;-82
2022/01/24 08:12:47;;;;;;;52.15;39.20;;;4.90;99.90;;;;;;6236590;22;20019;-82
2022/01/24 08:15:16;;;;;;;60.67;43.07;;;4.80;99.90;;;;;;6236534;22;20031;-82
2022/01/24 08:17:46;;;;;;;67.15;46.55;;;4.90;99.90;;;;;;6210758;22;20024;-82
2022/01/24 08:20:14;;;;;;;65.38;46.05;;;4.80;99.90;;;;;;6236786;22;20478;-82
2022/01/24 08:22:40;;;;;;;67.03;47.93;;;4.90;99.90;;;;;;6236313;22;20023;-83
2022/01/24 08:25:07;;;;;;;77.43;53.70;;;4.80;99.90;;;;;;6263421;22;20012;-83
2022/01/24 08:27:34;;;;;;;75.23;52.97;;;4.90;99.90;;;;;;6237679;22;20075;-83
2022/01/24 08:30:00;;;;;;;75.60;50.97;;;4.90;99.90;;;;;;6238504;22;20022;-83
2022/01/24 08:32:26;;;;;;;76.95;51.63;;;5.00;99.90;;;;;;6238636;22;20020;-82
2022/01/24 08:34:52;;;;;;;80.43;55.80;;;5.00;99.90;;;;;;6236081;22;20022;-82
2022/01/24 08:37:18;;;;;;;79.67;52.40;;;5.00;99.90;;;;;;6262764;22;20020;-82
2022/01/24 08:39:45;;;;;;;77.43;52.90;;;5.00;99.90;;;;;;6212973;22;20466;-83
2022/01/24 08:47:23;;;;;;;78.23;52.20;;;5.10;99.90;;;;;;6262967;22;20019;-83
2022/01/24 08:49:49;;;;;;;82.72;56.95;;;5.00;99.90;;;;;;6211781;22;20019;-82
2022/01/24 08:52:15;;;;;;;81.47;54.50;;;5.10;99.90;;;;;;6238776;22;20035;-82
2022/01/24 08:54:41;;;;;;;80.10;56.15;;;5.00;99.90;;;;;;6236066;22;20020;-82
2022/01/24 08:57:07;;;;;;;79.30;55.60;;;5.10;99.90;;;;;;6238441;22;20366;-82
2022/01/24 08:59:38;;;;;;;83.07;55.90;;;5.10;99.90;;;;;;6213028;22;20077;-82
2022/01/24 09:02:05;;;;;;;80.63;56.03;;;5.10;99.90;;;;;;6240317;22;20078;-82
2022/01/24 09:04:31;;;;;;;80.60;56.10;;;5.10;99.90;;;;;;6269293;22;20312;-82
2022/01/24 09:07:03;;;;;;;93.22;57.67;;;5.20;99.90;;;;;;6266626;22;20081;-82
2022/01/24 09:09:31;;;;;;;86.93;59.60;;;5.10;99.90;;;;;;6243317;22;20018;-82
2022/01/24 09:12:02;;;;;;;84.80;57.60;;;5.10;99.90;;;;;;6243403;22;20015;-82
2022/01/24 09:14:30;;;;;;;72.17;52.13;;;5.20;99.90;;;;;;6243964;22;20019;-83
2022/01/24 09:16:56;;;;;;;56.97;43.85;;;5.20;99.90;;;;;;6242787;22;20023;-83
2022/01/24 09:19:22;;;;;;;52.38;42.00;;;5.20;99.90;;;;;;6243114;22;20397;-83
2022/01/24 09:21:49;;;;;;;50.65;39.53;;;5.30;99.90;;;;;;6241702;22;20019;-83
2022/01/24 09:24:15;;;;;;;59.22;45.17;;;5.30;99.90;;;;;;6217798;22;20475;-83
2022/01/24 09:26:41;;;;;;;66.13;49.90;;;5.30;99.90;;;;;;6216140;22;20015;-82
2022/01/24 09:29:08;;;;;;;69.73;52.83;;;5.40;99.90;;;;;;6242854;22;20019;-83
2022/01/24 09:31:34;;;;;;;66.78;51.70;;;5.40;99.90;;;;;;6269620;22;20019;-82
2022/01/24 09:34:00;;;;;;;64.03;49.10;;;5.40;99.90;;;;;;6243961;22;20397;-82
2022/01/24 09:36:26;;;;;;;63.28;49.67;;;5.40;99.90;;;;;;6269660;22;20054;-83
2022/01/24 09:38:52;;;;;;;66.88;52.92;;;5.40;99.90;;;;;;6241139;22;20094;-83
2022/01/24 09:41:17;;;;;;;66.47;52.90;;;5.40;99.90;;;;;;6240768;22;20746;-82
2022/01/24 09:43:44;;;;;;;69.10;55.17;;;5.40;99.90;;;;;;6265538;22;20106;-82
2022/01/24 09:46:10;;;;;;;70.88;54.75;;;5.40;99.90;;;;;;6216240;22;20011;-83
2022/01/24 09:48:41;;;;;;;65.80;53.20;;;5.40;99.90;;;;;;6265668;22;20094;-83
2022/01/24 09:51:07;;;;;;;;;;;5.50;99.90;;;;;;6266796;22;20462;-82
2022/01/24 09:53:33;;;;;;;76.50;59.20;;;5.40;99.90;;;;;;6242671;22;19942;-83
2022/01/24 09:56:03;;;;;;;76.77;57.97;;;5.40;99.90;;;;;;6269589;22;20331;-82
2022/01/24 09:58:33;;;;;;;77.30;58.65;;;5.50;99.90;;;;;;6217720;22;20034;-82
2022/01/24 10:01:00;;;;;;;79.10;59.35;;;5.40;99.90;;;;;;6265509;22;20072;-82
2022/01/24 10:03:26;;;;;;;72.47;55.23;;;5.50;99.90;;;;;;6266855;22;20025;-83
2022/01/24 10:05:56;;;;;;;78.80;59.13;;;5.60;99.90;;;;;;6265349;22;20015;-83
2022/01/24 10:08:24;;;;;;;78.40;58.80;;;5.50;99.90;;;;;;6240587;22;20023;-82
2022/01/24 10:10:55;;;;;;;75.95;56.28;;;5.50;99.90;;;;;;6266354;22;20017;-82
2022/01/24 10:16:25;;;;;;;74.18;57.53;;;5.50;99.90;;;;;;6265860;22;20317;-82
2022/01/24 10:19:04;;;;;;;79.63;58.43;;;5.50;99.90;;;;;;6267062;22;20700;-82
2022/01/24 10:21:42;;;;;;;77.97;59.13;;;5.50;99.90;;;;;;6241264;22;20022;-82
2022/01/24 10:24:14;;;;;;;77.70;58.30;;;5.50;99.90;;;;;;6267333;22;20019;-83
2022/01/24 10:26:39;;;;;;;75.70;58.33;;;5.50;99.90;;;;;;6241404;22;20643;-82
2022/01/24 10:29:11;;;;;;;75.60;57.53;;;5.50;99.90;;;;;;6243143;22;20201;-83
2022/01/24 10:31:45;;;;;;;78.53;59.33;;;5.50;99.90;;;;;;6241518;22;20030;-82
2022/01/24 10:34:23;;;;;;;76.93;56.80;;;5.50;99.90;;;;;;6267160;22;20097;-83
2022/01/24 10:36:51;;;;;;;78.57;57.72;;;5.60;99.90;;;;;;6219118;22;20616;-83
2022/01/24 10:39:33;;;;;;;75.87;55.80;;;5.60;99.90;;;;;;6267056;22;20339;-83
2022/01/24 10:45:12;;;;;;;82.83;58.10;;;5.50;99.90;;;;;;6268001;22;20042;-82
2022/01/24 10:47:44;;;;;;;82.13;58.85;;;5.50;99.90;;;;;;6241716;22;20019;-83
2022/01/24 10:50:18;;;;;;;81.38;58.13;;;5.50;99.90;;;;;;6266198;22;20019;-83
2022/01/24 10:52:44;;;;;;;78.15;57.22;;;5.50;99.90;;;;;;6242056;22;20064;-83
2022/01/24 10:55:22;;;;;;;81.77;59.93;;;5.50;99.90;;;;;;6242546;22;20431;-82
2022/01/24 10:58:14;;;;;;;81.22;58.92;;;5.50;99.90;;;;;;6266616;22;20030;-82
2022/01/24 11:00:41;;;;;;;78.50;58.25;;;5.50;99.90;;;;;;6266888;22;20022;-82
2022/01/24 11:03:14;;;;;;;79.50;57.75;;;5.50;99.90;;;;;;6236695;22;20444;-82
2022/01/24 11:05:44;;;;;;;83.80;59.03;;;5.50;99.90;;;;;;6254759;22;20099;-83
2022/01/24 11:08:17;;;;;;;80.80;59.72;;;5.50;99.90;;;;;;6256662;22;20122;-83
2022/01/24 11:10:53;;;;;;;80.03;59.03;;;5.50;99.90;;;;;;6233389;22;20023;-83
2022/01/24 11:13:20;;;;;;;80.55;59.92;;;5.60;99.90;;;;;;6237150;22;20011;-82
2022/01/24 11:15:55;;;;;;;76.50;57.90;;;5.50;99.90;;;;;;6237330;22;20030;-83
2022/01/24 11:18:25;;;;;;;73.50;56.87;;;5.50;99.90;;;;;;6238156;22;20114;-82
2022/01/24 11:21:01;;;;;;;81.63;61.88;;;5.60;99.90;;;;;;6211613;22;20069;-82
2022/01/24 11:23:28;;;;;;;79.20;57.37;;;5.50;99.90;;;;;;6236686;22;20372;-82
2022/01/24 11:25:59;;;;;;;76.72;59.10;;;5.60;99.90;;;;;;6233926;22;20535;-83
2022/01/24 11:28:25;;;;;;;78.57;59.72;;;5.70;99.90;;;;;;6261208;22;20377;-83
2022/01/24 11:31:03;;;;;;;77.70;57.83;;;5.50;99.90;;;;;;6208783;22;20018;-82
2022/01/24 11:33:42;;;;;;;73.53;55.92;;;5.60;99.90;;;;;;6261381;22;20022;-83
2022/01/24 11:36:09;;;;;;;75.30;55.60;;;5.50;99.90;;;;;;6236313;22;20119;-83
2022/01/24 11:38:38;;;;;;;74.95;56.13;;;5.50;99.90;;;;;;6209955;22;20051;-82
2022/01/24 11:41:26;;;;;;;74.15;57.17;;;5.50;99.90;;;;;;6237251;22;20347;-82
2022/01/24 11:43:59;;;;;;;75.60;55.83;;;5.50;99.90;;;;;;6260867;22;20016;-83
2022/01/24 11:46:48;;;;;;;73.27;57.63;;;5.50;99.90;;;;;;6260874;22;20090;-83
2022/01/24 11:49:26;;;;;;;73.73;56.37;;;5.50;99.90;;;;;;6260392;22;20027;-82
2022/01/24 11:52:01;;;;;;;75.60;57.47;;;5.50;99.90;;;;;;6261653;22;20015;-82
2022/01/24 11:54:44;;;;;;;73.53;56.27;;;5.50;99.90;;;;;;6260966;22;20259;-82
2022/01/24 11:57:44;;;;;;;73.88;56.00;;;5.50;99.90;;;;;;6261796;22;20031;-83
2022/01/24 12:00:10;;;;;;;73.95;57.30;;;5.50;99.90;;;;;;6235954;22;20070;-82
2022/01/24 12:02:44;;;;;;;75.83;59.87;;;5.50;99.90;;;;;;6235812;22;20024;-82
2022/01/24 12:05:18;;;;;;;76.53;59.55;;;5.50;99.90;;;;;;6237236;22;20030;-83
2022/01/24 12:07:59;;;;;;;76.55;59.42;;;5.50;99.90;;;;;;6263763;22;20694;-82
2022/01/24 12:10:26;;;;;;;73.00;56.45;;;5.50;99.90;;;;;;6239668;22;20085;-84
2022/01/24 12:13:02;;;;;;;70.37;54.90;;;5.50;99.90;;;;;;6263309;22;20023;-82
2022/01/24 12:15:37;;;;;;;70.53;53.53;;;5.50;99.90;;;;;;6238631;22;20399;-82
2022/01/24 12:18:18;;;;;;;71.35;53.85;;;5.50;99.90;;;;;;6237465;22;20031;-82
2022/01/24 12:20:47;;;;;;;74.38;54.20;;;5.50;99.90;;;;;;6237240;22;20094;-82
2022/01/24 12:23:16;;;;;;;71.85;55.40;;;5.50;99.90;;;;;;6262598;22;20444;-82
2022/01/24 12:25:54;;;;;;;69.87;54.53;;;5.50;99.90;;;;;;6237658;22;20027;-82
2022/01/24 12:28:23;;;;;;;57.77;47.97;;;5.50;99.90;;;;;;6239134;22;20015;-82
2022/01/24 12:31:03;;;;;;;57.70;47.10;;;5.60;99.90;;;;;;6263657;22;20320;-82
2022/01/24 12:33:30;;;;;;;61.17;48.75;;;5.50;99.90;;;;;;6262558;22;20019;-82
2022/01/24 12:35:56;;;;;;;58.60;47.63;;;5.50;99.90;;;;;;6212802;22;20228;-82
2022/01/24 12:38:22;;;;;;;55.30;45.40;;;5.50;99.90;;;;;;6264355;22;20575;-82
2022/01/24 12:40:48;;;;;;;61.47;49.37;;;5.50;99.90;;;;;;6213255;22;20015;-82
2022/01/24 12:43:40;;;;;;;64.30;53.63;;;5.50;99.90;;;;;;6238172;22;20346;-82
2022/01/24 12:46:19;;;;;;;63.10;50.23;;;5.50;99.90;;;;;;6236945;22;20012;-83
2022/01/24 12:48:48;;;;;;;60.40;50.37;;;5.50;99.90;;;;;;6215102;22;20020;-82
2022/01/24 12:51:16;;;;;;;63.03;50.70;;;5.40;99.90;;;;;;6263291;22;20035;-82
2022/01/24 12:53:42;;;;;;;60.17;50.57;;;5.40;99.90;;;;;;6213334;22;20018;-82
2022/01/24 12:56:08;;;;;;;59.90;50.47;;;5.40;99.90;;;;;;6263158;22;20484;-83
2022/01/24 12:58:40;;;;;;;57.50;48.70;;;5.40;99.90;;;;;;6264041;22;20039;-82
2022/01/24 13:01:28;;;;;;;59.77;49.87;;;5.40;99.90;;;;;;6262831;22;20022;-82
2022/01/24 13:04:02;;;;;;;57.63;48.70;;;5.40;99.90;;;;;;6237305;22;20020;-82
2022/01/24 13:06:35;;;;;;;58.87;48.53;;;5.40;99.90;;;;;;6261897;22;20197;-83
2022/01/24 13:09:25;;;;;;;60.70;50.27;;;5.40;99.90;;;;;;6236514;22;20020;-83
2022/01/24 13:12:01;;;;;;;56.13;48.05;;;5.40;99.90;;;;;;6238568;22;20015;-82
2022/01/24 13:14:52;;;;;;;54.50;47.63;;;5.40;99.90;;;;;;6264405;22;20098;-83
2022/01/24 13:22:57;;;;;;;56.90;48.53;;;5.30;99.90;;;;;;6263426;22;20129;-82
2022/01/24 13:25:30;;;;;;;57.90;50.27;;;5.30;99.90;;;;;;6214510;22;20016;-83
2022/01/24 13:27:59;;;;;;;57.27;48.80;;;5.50;99.90;;;;;;6261186;22;20430;-82
2022/01/24 13:31:01;;;;;;;55.97;48.70;;;5.30;99.90;;;;;;6236777;22;20019;-83
2022/01/24 13:33:30;;;;;;;58.43;49.23;;;5.30;99.90;;;;;;6261365;22;20018;-83
2022/01/24 13:36:05;;;;;;;58.60;48.63;;;5.30;99.90;;;;;;6211247;22;20015;-82
2022/01/24 13:38:43;;;;;;;57.70;49.47;;;5.30;99.90;;;;;;6262077;22;20091;-83
2022/01/24 13:41:15;;;;;;;56.87;48.80;;;5.30;99.90;;;;;;6236224;22;20026;-82
2022/01/24 13:43:51;;;;;;;62.57;50.73;;;5.30;99.90;;;;;;6237616;22;20069;-82
2022/01/24 13:46:41;;;;;;;57.63;48.80;;;5.30;99.90;;;;;;6263079;22;20298;-82
2022/01/24 13:49:18;;;;;;;59.08;47.95;;;5.30;99.90;;;;;;6263609;22;20026;-83
2022/01/24 13:51:54;;;;;;;56.50;49.37;;;5.30;99.90;;;;;;6263532;22;20023;-82
2022/01/24 13:54:28;;;;;;;56.70;49.17;;;5.30;99.90;;;;;;6235334;22;20565;-82
2022/01/24 13:56:56;;;;;;;58.00;49.17;;;5.30;99.90;;;;;;6262973;22;20028;-82
2022/01/24 13:59:31;;;;;;;55.37;47.63;;;5.30;99.90;;;;;;6235251;22;20536;-82
2022/01/24 14:02:18;;;;;;;56.40;48.70;;;5.30;99.90;;;;;;6236580;22;20243;-82
2022/01/24 14:04:50;;;;;;;56.23;49.57;;;5.30;99.90;;;;;;6237338;22;20020;-82
2022/01/24 14:07:31;;;;;;;53.78;46.65;;;5.30;99.90;;;;;;6262421;22;20027;-82
2022/01/24 14:10:01;;;;;;;57.40;47.40;;;5.20;99.90;;;;;;6237373;22;20075;-83
2022/01/24 14:12:36;;;;;;;53.73;46.13;;;5.30;99.90;;;;;;6261618;22;20073;-82
2022/01/24 14:15:15;;;;;;;55.47;47.95;;;5.30;99.90;;;;;;6261211;22;20024;-82
2022/01/24 14:17:51;;;;;;;54.47;46.93;;;5.30;99.90;;;;;;6213511;22;20335;-83
2022/01/24 14:20:19;;;;;;;55.05;45.88;;;5.20;99.90;;;;;;6261190;22;20020;-82
2022/01/24 14:22:46;;;;;;;54.20;46.75;;;5.30;99.90;;;;;;6262918;22;20022;-82
2022/01/24 14:25:31;;;;;;;51.45;45.42;;;5.20;99.90;;;;;;6237000;22;20023;-82
2022/01/24 14:28:08;;;;;;;51.70;46.10;;;5.20;99.90;;;;;;6263865;22;20030;-82
2022/01/24 14:30:40;;;;;;;51.47;44.70;;;5.20;99.90;;;;;;6263925;22;20114;-82
2022/01/24 14:33:19;;;;;;;48.67;43.37;;;5.20;99.90;;;;;;6264023;22;20023;-83
2022/01/24 14:35:59;;;;;;;48.13;42.92;;;5.20;99.90;;;;;;6260935;22;20023;-83
2022/01/24 14:38:37;;;;;;;47.57;42.60;;;5.20;99.90;;;;;;6262381;22;20304;-82
2022/01/24 14:41:10;;;;;;;50.53;45.23;;;5.20;99.90;;;;;;6236644;22;20020;-82